Sitka, AK

3:55 PM AKST on December 17, 2014 (GMT -0900)
Sitka Rocky Gutierrez | Change Station
CLOSE
Current Station
Airport
Location: Sitka,
Elevation: 20 ft
Nearby Weather Stations

Elev 20 ft 57.05 °N, 135.36 °W | Updated 1 hour ago

Mostly Cloudy
Mostly Cloudy
42 °F
Feels Like 34 °F
N
15
Wind Variable Wind from East

Today
High -- | Low -- °F
--% Chance of Precip.
Yesterday
High -- | Low -- °F
Precip. -- in
8:35 AM 3:21 PM
Waning Crescent, 18% visible
Pressure 29.68 in
Visibility 10.0 miles
Clouds Mostly Cloudy 12000 ft
Windchill 34 °F
Dew Point 31 °F
Humidity 65%
Rainfall 0.00 in
Snow Depth Not available.
UV 0 out of 12
Pollen Not available.
Air Quality Not available.
Flu Activity Not available.
METAR PASI 172353Z 10013KT 10SM BKN120 06/M01 A2968 RMK AO2 SLP050 T00561006 10056 20017 58013

More Conditions Fewer Conditions

Pressure 29.68 in
Visibility 10.0 miles
Clouds Mostly Cloudy 12000 ft
Windchill 34 °F
Dew Point 31 °F
Humidity 65%
Rainfall 0.00 in
Snow Depth Not available.
UV 0 out of 12
Pollen Not available.
Air Quality Not available.
Flu Activity Not available.
METAR PASI 172353Z 10013KT 10SM BKN120 06/M01 A2968 RMK AO2 SLP050 T00561006 10056 20017 58013

More Conditions Fewer Conditions

10-Day Weather Forecast

Almanac

Astronomy

Dec. 17, 2014 Rise Set
Actual Time
Civil Twilight
Nautical Twilight
Astronomical Twilight
Moon
Length of Visible Light
Length of Day
Tomorrow will be .
, % of the Moon is Illuminated

Today's Extremes

State Highs State Lows

Community

WunderPhotos

Upload Photos

1,778,837 photos uploaded!

WunderBlogs® & News

Nearby

Air Quality

  Air Quality AQ Index Pollutant
Not available.

Snow Depth

Station Depth Elevation

Earthquake Activity

City Distance Mag. Time & Date
Minimum magnitude displayed is 2.5.

Coastal Water Temperatures

Place Temperature

Nearby Weather Stations